N463TD KFFA-KW13
Flight info
| Callsign | N463TD |
|---|---|
| Flight time | N/A |
| Altitude | 7000 |
| Route | ECG LVL |
| Aircraft | AEST/L-SDFGRY/S |
Departure
| Time | 2026-04-25 12:34 |
|---|---|
| Airport | First Flight Airport (KFFA) |
Arrival
| Time | N/A |
|---|---|
| Airport | KW13 |
| Time | Latitude | Longitude | Altitude | Speed | Heading |
|---|---|---|---|---|---|
| 2026-04-25 12:27 | 36.01440 | -75.67181 | 9 ft | 0 kts | 14° |
| 2026-04-25 12:28 | 36.01451 | -75.67190 | 18 ft | 7 kts | 275° |
| 2026-04-25 12:28 | 36.01402 | -75.67224 | 18 ft | 10 kts | 195° |
| 2026-04-25 12:28 | 36.01377 | -75.67235 | 18 ft | 0 kts | 211° |
| 2026-04-25 12:30 | 36.01386 | -75.67284 | 16 ft | 4 kts | 13° |
| 2026-04-25 12:31 | 36.01387 | -75.67284 | 16 ft | 0 kts | 14° |
| 2026-04-25 12:31 | 36.01428 | -75.67270 | 16 ft | 34 kts | 17° |
| 2026-04-25 12:31 | 36.01913 | -75.67107 | 29 ft | 98 kts | 18° |
| 2026-04-25 12:32 | 36.02614 | -75.66816 | 220 ft | 120 kts | 22° |
| 2026-04-25 12:32 | 36.03381 | -75.66325 | 373 ft | 127 kts | 50° |
| 2026-04-25 12:32 | 36.03439 | -75.65307 | 443 ft | 130 kts | 134° |
| 2026-04-25 12:32 | 36.02635 | -75.65264 | 428 ft | 134 kts | 235° |
| 2026-04-25 12:33 | 36.02405 | -75.66334 | 282 ft | 122 kts | 253° |
| 2026-04-25 12:33 | 36.01779 | -75.66894 | 42 ft | 115 kts | 186° |
| 2026-04-25 12:33 | 36.01401 | -75.66923 | 111 ft | 116 kts | 186° |
| 2026-04-25 12:33 | 36.00687 | -75.67111 | 412 ft | 124 kts | 218° |
| 2026-04-25 12:34 | 36.00285 | -75.68027 | 595 ft | 132 kts | 277° |
| 2026-04-25 12:34 | 36.00800 | -75.68905 | 815 ft | 134 kts | 330° |
| 2026-04-25 12:34 | 36.01611 | -75.69533 | 981 ft | 140 kts | 322° |
| 2026-04-25 12:34 | 36.01860 | -75.69799 | 1055 ft | 140 kts | 317° |
| 2026-04-25 12:35 | 36.02917 | -75.71204 | 1515 ft | 132 kts | 311° |
| 2026-04-25 12:35 | 36.03428 | -75.72178 | 1672 ft | 138 kts | 295° |
| 2026-04-25 12:35 | 36.03795 | -75.73251 | 1966 ft | 133 kts | 291° |
| 2026-04-25 12:35 | 36.04057 | -75.74339 | 2203 ft | 135 kts | 281° |
| 2026-04-25 12:36 | 36.04189 | -75.75507 | 2384 ft | 138 kts | 276° |
| 2026-04-25 12:36 | 36.04337 | -75.76660 | 2654 ft | 135 kts | 286° |
| 2026-04-25 12:36 | 36.04807 | -75.77683 | 2755 ft | 144 kts | 304° |
| 2026-04-25 12:36 | 36.05356 | -75.78679 | 3074 ft | 135 kts | 300° |
| 2026-04-25 12:37 | 36.05836 | -75.79665 | 3287 ft | 137 kts | 298° |
| 2026-04-25 12:37 | 36.06296 | -75.80735 | 3404 ft | 143 kts | 294° |
| 2026-04-25 12:37 | 36.06667 | -75.81845 | 3670 ft | 137 kts | 287° |
| 2026-04-25 12:37 | 36.06922 | -75.82989 | 3832 ft | 140 kts | 283° |
| 2026-04-25 12:38 | 36.07187 | -75.84159 | 3991 ft | 141 kts | 286° |
| 2026-04-25 12:38 | 36.07499 | -75.85288 | 4195 ft | 138 kts | 293° |
| 2026-04-25 12:38 | 36.07960 | -75.86346 | 4330 ft | 141 kts | 298° |
| 2026-04-25 12:38 | 36.08460 | -75.87392 | 4515 ft | 140 kts | 298° |
| 2026-04-25 12:39 | 36.08944 | -75.88431 | 4684 ft | 140 kts | 297° |
| 2026-04-25 12:39 | 36.09380 | -75.89519 | 4818 ft | 142 kts | 292° |
| 2026-04-25 12:39 | 36.09637 | -75.90279 | 4934 ft | 141 kts | 290° |
| 2026-04-25 12:39 | 36.10122 | -75.91771 | 5128 ft | 143 kts | 295° |
| 2026-04-25 12:40 | 36.10445 | -75.92501 | 5213 ft | 144 kts | 298° |
| 2026-04-25 12:40 | 36.10941 | -75.93565 | 5379 ft | 142 kts | 300° |
| 2026-04-25 12:40 | 36.11431 | -75.94611 | 5508 ft | 143 kts | 297° |
| 2026-04-25 12:40 | 36.11869 | -75.95720 | 5631 ft | 144 kts | 292° |
| 2026-04-25 12:41 | 36.12225 | -75.96871 | 5777 ft | 143 kts | 288° |
| 2026-04-25 12:41 | 36.12524 | -75.98042 | 5899 ft | 143 kts | 285° |
| 2026-04-25 12:41 | 36.12795 | -75.99230 | 6018 ft | 144 kts | 284° |
| 2026-04-25 12:41 | 36.13120 | -76.00402 | 6126 ft | 145 kts | 294° |
| 2026-04-25 12:42 | 36.13610 | -76.01496 | 6239 ft | 145 kts | 300° |
| 2026-04-25 12:42 | 36.13958 | -76.02195 | 6330 ft | 144 kts | 299° |
| 2026-04-25 12:42 | 36.14614 | -76.03652 | 6453 ft | 147 kts | 296° |
| 2026-04-25 12:42 | 36.15069 | -76.04796 | 6647 ft | 147 kts | 295° |
| 2026-04-25 12:43 | 36.15518 | -76.05910 | 6909 ft | 144 kts | 295° |
| 2026-04-25 12:43 | 36.15996 | -76.07054 | 6926 ft | 156 kts | 297° |
| 2026-04-25 12:43 | 36.16809 | -76.09605 | 7111 ft | 162 kts | 280° |
| 2026-04-25 12:44 | 36.17052 | -76.11025 | 7054 ft | 174 kts | 283° |
| 2026-04-25 12:44 | 36.17400 | -76.12512 | 6987 ft | 185 kts | 289° |
| 2026-04-25 12:44 | 36.18470 | -76.15509 | 6956 ft | 194 kts | 297° |
| 2026-04-25 12:45 | 36.19126 | -76.16969 | 6970 ft | 195 kts | 298° |
| 2026-04-25 12:45 | 36.19801 | -76.18432 | 6969 ft | 197 kts | 298° |
| 2026-04-25 12:45 | 36.21090 | -76.21440 | 6961 ft | 197 kts | 295° |
| 2026-04-25 12:46 | 36.21672 | -76.22978 | 6959 ft | 197 kts | 293° |
| 2026-04-25 12:46 | 36.22223 | -76.24528 | 6961 ft | 196 kts | 292° |
| 2026-04-25 12:46 | 36.22760 | -76.26079 | 6964 ft | 196 kts | 292° |
| 2026-04-25 12:46 | 36.23291 | -76.27638 | 6958 ft | 196 kts | 292° |
| 2026-04-25 12:47 | 36.23829 | -76.29191 | 6964 ft | 196 kts | 292° |
| 2026-04-25 12:47 | 36.24381 | -76.30739 | 6964 ft | 196 kts | 293° |
| 2026-04-25 12:47 | 36.24946 | -76.32277 | 6961 ft | 196 kts | 294° |
| 2026-04-25 12:47 | 36.25514 | -76.33785 | 6964 ft | 196 kts | 294° |
| 2026-04-25 12:48 | 36.26096 | -76.35312 | 6958 ft | 197 kts | 294° |
| 2026-04-25 12:48 | 36.26676 | -76.36848 | 6962 ft | 197 kts | 294° |
| 2026-04-25 12:48 | 36.27249 | -76.38388 | 6959 ft | 197 kts | 293° |
| 2026-04-25 12:48 | 36.27816 | -76.39932 | 6961 ft | 196 kts | 293° |
| 2026-04-25 12:49 | 36.28378 | -76.41477 | 6955 ft | 197 kts | 293° |
| 2026-04-25 12:49 | 36.28940 | -76.43020 | 6953 ft | 196 kts | 293° |
| 2026-04-25 12:49 | 36.29499 | -76.44556 | 6958 ft | 195 kts | 293° |
| 2026-04-25 12:49 | 36.30059 | -76.46090 | 6958 ft | 195 kts | 293° |
| 2026-04-25 12:50 | 36.30622 | -76.47627 | 6958 ft | 196 kts | 293° |
| 2026-04-25 12:50 | 36.31188 | -76.49168 | 6959 ft | 196 kts | 293° |
| 2026-04-25 12:50 | 36.31755 | -76.50706 | 6960 ft | 196 kts | 293° |
| 2026-04-25 12:50 | 36.32327 | -76.52246 | 6958 ft | 197 kts | 293° |
| 2026-04-25 12:51 | 36.32898 | -76.53789 | 6962 ft | 197 kts | 293° |
| 2026-04-25 12:51 | 36.33462 | -76.55333 | 6965 ft | 196 kts | 292° |
| 2026-04-25 12:51 | 36.34024 | -76.56877 | 6961 ft | 197 kts | 292° |
| 2026-04-25 12:51 | 36.34583 | -76.58425 | 6960 ft | 196 kts | 292° |
| 2026-04-25 12:52 | 36.35133 | -76.59943 | 6954 ft | 196 kts | 292° |
| 2026-04-25 12:52 | 36.35700 | -76.61500 | 6963 ft | 196 kts | 292° |
| 2026-04-25 12:52 | 36.36255 | -76.63019 | 6960 ft | 196 kts | 293° |
| 2026-04-25 12:52 | 36.36819 | -76.64560 | 6964 ft | 196 kts | 293° |
| 2026-04-25 12:53 | 36.37386 | -76.66100 | 6962 ft | 197 kts | 293° |
| 2026-04-25 12:53 | 36.37953 | -76.67644 | 6962 ft | 196 kts | 293° |
| 2026-04-25 12:53 | 36.38519 | -76.69191 | 6962 ft | 198 kts | 292° |
| 2026-04-25 12:53 | 36.39092 | -76.70765 | 6954 ft | 197 kts | 292° |
| 2026-04-25 12:54 | 36.39654 | -76.72314 | 6969 ft | 196 kts | 292° |
| 2026-04-25 12:54 | 36.40217 | -76.73864 | 6962 ft | 197 kts | 292° |
| 2026-04-25 12:54 | 36.40778 | -76.75412 | 6971 ft | 197 kts | 292° |
| 2026-04-25 12:54 | 36.41340 | -76.76965 | 6966 ft | 197 kts | 292° |
| 2026-04-25 12:55 | 36.41898 | -76.78498 | 6966 ft | 197 kts | 292° |
| 2026-04-25 12:55 | 36.42281 | -76.79547 | 6950 ft | 198 kts | 292° |
| 2026-04-25 12:55 | 36.43027 | -76.81597 | 6970 ft | 197 kts | 292° |
| 2026-04-25 12:55 | 36.43592 | -76.83150 | 6969 ft | 197 kts | 292° |
| 2026-04-25 12:56 | 36.44156 | -76.84707 | 6964 ft | 198 kts | 292° |
| 2026-04-25 12:56 | 36.44720 | -76.86261 | 6964 ft | 197 kts | 292° |
| 2026-04-25 12:56 | 36.45286 | -76.87811 | 6970 ft | 198 kts | 292° |
| 2026-04-25 12:56 | 36.45854 | -76.89367 | 6964 ft | 198 kts | 292° |
| 2026-04-25 12:57 | 36.46417 | -76.90923 | 6967 ft | 197 kts | 292° |
| 2026-04-25 12:57 | 36.46975 | -76.92474 | 6968 ft | 197 kts | 292° |
| 2026-04-25 12:57 | 36.47533 | -76.94028 | 6963 ft | 197 kts | 292° |
| 2026-04-25 12:57 | 36.48088 | -76.95575 | 6967 ft | 196 kts | 292° |
| 2026-04-25 12:58 | 36.48644 | -76.97120 | 6968 ft | 196 kts | 292° |
| 2026-04-25 12:58 | 36.49201 | -76.98663 | 6974 ft | 196 kts | 292° |
| 2026-04-25 12:58 | 36.49760 | -77.00210 | 6964 ft | 197 kts | 292° |
| 2026-04-25 12:58 | 36.50320 | -77.01759 | 6977 ft | 197 kts | 292° |
| 2026-04-25 12:59 | 36.50883 | -77.03314 | 6968 ft | 198 kts | 292° |
| 2026-04-25 12:59 | 36.51447 | -77.04875 | 6966 ft | 198 kts | 292° |
| 2026-04-25 12:59 | 36.52010 | -77.06438 | 6974 ft | 199 kts | 292° |
| 2026-04-25 12:59 | 36.52575 | -77.08008 | 6968 ft | 199 kts | 292° |
| 2026-04-25 13:00 | 36.53142 | -77.09582 | 6965 ft | 199 kts | 292° |
| 2026-04-25 13:00 | 36.53515 | -77.10624 | 6973 ft | 200 kts | 292° |
| 2026-04-25 13:00 | 36.54265 | -77.12747 | 6964 ft | 201 kts | 292° |
| 2026-04-25 13:00 | 36.54833 | -77.14336 | 6979 ft | 202 kts | 293° |
| 2026-04-25 13:01 | 36.55410 | -77.15931 | 6967 ft | 202 kts | 292° |
| 2026-04-25 13:01 | 36.55985 | -77.17523 | 6960 ft | 202 kts | 293° |
| 2026-04-25 13:01 | 36.56555 | -77.19087 | 6977 ft | 201 kts | 293° |
| 2026-04-25 13:01 | 36.57134 | -77.20674 | 6973 ft | 202 kts | 293° |
| 2026-04-25 13:02 | 36.57708 | -77.22264 | 6965 ft | 201 kts | 292° |
| 2026-04-25 13:02 | 36.58275 | -77.23855 | 6961 ft | 201 kts | 292° |
| 2026-04-25 13:02 | 36.58838 | -77.25446 | 6967 ft | 200 kts | 292° |
| 2026-04-25 13:02 | 36.59403 | -77.27040 | 6973 ft | 203 kts | 292° |
| 2026-04-25 13:03 | 36.59973 | -77.28646 | 6960 ft | 203 kts | 292° |
| 2026-04-25 13:03 | 36.60544 | -77.30243 | 6974 ft | 202 kts | 292° |
| 2026-04-25 13:03 | 36.61116 | -77.31841 | 6962 ft | 202 kts | 292° |
| 2026-04-25 13:03 | 36.61688 | -77.33432 | 6976 ft | 201 kts | 292° |
| 2026-04-25 13:04 | 36.62260 | -77.35028 | 6960 ft | 202 kts | 292° |
| 2026-04-25 13:04 | 36.62831 | -77.36629 | 6971 ft | 202 kts | 292° |
| 2026-04-25 13:04 | 36.63402 | -77.38229 | 6969 ft | 202 kts | 292° |
| 2026-04-25 13:04 | 36.63969 | -77.39821 | 6967 ft | 201 kts | 292° |
| 2026-04-25 13:05 | 36.64536 | -77.41412 | 6975 ft | 201 kts | 292° |
| 2026-04-25 13:05 | 36.65102 | -77.43004 | 6968 ft | 201 kts | 292° |
| 2026-04-25 13:05 | 36.65669 | -77.44595 | 6970 ft | 201 kts | 292° |
| 2026-04-25 13:05 | 36.66233 | -77.46185 | 6968 ft | 201 kts | 292° |
| 2026-04-25 13:06 | 36.66798 | -77.47777 | 6968 ft | 201 kts | 292° |
| 2026-04-25 13:06 | 36.67362 | -77.49365 | 6972 ft | 200 kts | 292° |
| 2026-04-25 13:06 | 36.67925 | -77.50954 | 6970 ft | 201 kts | 292° |
| 2026-04-25 13:06 | 36.68489 | -77.52544 | 6970 ft | 201 kts | 292° |
| 2026-04-25 13:07 | 36.69054 | -77.54135 | 6970 ft | 201 kts | 292° |
| 2026-04-25 13:07 | 36.69618 | -77.55726 | 6971 ft | 200 kts | 292° |
| 2026-04-25 13:07 | 36.70182 | -77.57316 | 6971 ft | 200 kts | 292° |
| 2026-04-25 13:07 | 36.70745 | -77.58905 | 6971 ft | 201 kts | 292° |
| 2026-04-25 13:08 | 36.71308 | -77.60499 | 6977 ft | 201 kts | 292° |
| 2026-04-25 13:08 | 36.71871 | -77.62098 | 6969 ft | 202 kts | 292° |
| 2026-04-25 13:08 | 36.72433 | -77.63694 | 6968 ft | 201 kts | 292° |
| 2026-04-25 13:08 | 36.72999 | -77.65295 | 6962 ft | 202 kts | 292° |
| 2026-04-25 13:09 | 36.73564 | -77.66894 | 6969 ft | 201 kts | 292° |
| 2026-04-25 13:09 | 36.74130 | -77.68488 | 6977 ft | 201 kts | 292° |
| 2026-04-25 13:09 | 36.74698 | -77.70087 | 6971 ft | 202 kts | 292° |
| 2026-04-25 13:09 | 36.75266 | -77.71685 | 6976 ft | 201 kts | 292° |
| 2026-04-25 13:10 | 36.75832 | -77.73284 | 6973 ft | 202 kts | 292° |
| 2026-04-25 13:10 | 36.76395 | -77.74890 | 6972 ft | 202 kts | 292° |
| 2026-04-25 13:10 | 36.76955 | -77.76496 | 6975 ft | 202 kts | 292° |
| 2026-04-25 13:10 | 36.77517 | -77.78099 | 6974 ft | 202 kts | 292° |
| 2026-04-25 13:11 | 36.78075 | -77.79686 | 6968 ft | 203 kts | 292° |
| 2026-04-25 13:11 | 36.78641 | -77.81294 | 6984 ft | 202 kts | 292° |
| 2026-04-25 13:11 | 36.79201 | -77.82900 | 6980 ft | 202 kts | 292° |
| 2026-04-25 13:11 | 36.79748 | -77.84508 | 6989 ft | 201 kts | 291° |
| 2026-04-25 13:12 | 36.80290 | -77.86114 | 6990 ft | 201 kts | 291° |
| 2026-04-25 13:12 | 36.80831 | -77.87725 | 6995 ft | 201 kts | 291° |
| 2026-04-25 13:12 | 36.81371 | -77.89341 | 6991 ft | 202 kts | 291° |
| 2026-04-25 13:12 | 36.81735 | -77.90430 | 7002 ft | 201 kts | 291° |
| 2026-04-25 13:13 | 36.82450 | -77.92573 | 6995 ft | 203 kts | 291° |
| 2026-04-25 13:13 | 36.83198 | -77.94047 | 7000 ft | 202 kts | 310° |
| 2026-04-25 13:13 | 36.84210 | -77.95267 | 7003 ft | 202 kts | 317° |
| 2026-04-25 13:13 | 36.85333 | -77.96336 | 6997 ft | 204 kts | 323° |
| 2026-04-25 13:14 | 36.86503 | -77.97340 | 6994 ft | 205 kts | 325° |
| 2026-04-25 13:14 | 36.87744 | -77.98226 | 6982 ft | 207 kts | 329° |
| 2026-04-25 13:14 | 36.89012 | -77.99084 | 6954 ft | 207 kts | 329° |
| 2026-04-25 13:14 | 36.90279 | -77.99942 | 6959 ft | 207 kts | 329° |
| 2026-04-25 13:15 | 36.91551 | -78.00804 | 6964 ft | 209 kts | 328° |
| 2026-04-25 13:15 | 36.92837 | -78.01673 | 6949 ft | 210 kts | 329° |
| 2026-04-25 13:15 | 36.94118 | -78.02541 | 6972 ft | 209 kts | 330° |
| 2026-04-25 13:15 | 36.95404 | -78.03416 | 6947 ft | 211 kts | 329° |
| 2026-04-25 13:16 | 36.96686 | -78.04286 | 6962 ft | 209 kts | 329° |
| 2026-04-25 13:16 | 36.97963 | -78.05153 | 6959 ft | 208 kts | 329° |
| 2026-04-25 13:16 | 36.99237 | -78.06018 | 6958 ft | 209 kts | 329° |
| 2026-04-25 13:16 | 37.00511 | -78.06886 | 6967 ft | 208 kts | 329° |
| 2026-04-25 13:17 | 37.01783 | -78.07756 | 6958 ft | 208 kts | 329° |
| 2026-04-25 13:17 | 37.03056 | -78.08629 | 6959 ft | 209 kts | 329° |
| 2026-04-25 13:17 | 37.04331 | -78.09503 | 6958 ft | 209 kts | 329° |
| 2026-04-25 13:17 | 37.05604 | -78.10376 | 6960 ft | 209 kts | 329° |
| 2026-04-25 13:18 | 37.06875 | -78.11250 | 6957 ft | 208 kts | 329° |
| 2026-04-25 13:18 | 37.08142 | -78.12122 | 6972 ft | 207 kts | 329° |
| 2026-04-25 13:18 | 37.09414 | -78.13000 | 6957 ft | 210 kts | 329° |
| 2026-04-25 13:18 | 37.10692 | -78.13879 | 6942 ft | 210 kts | 328° |
| 2026-04-25 13:19 | 37.11969 | -78.14764 | 6948 ft | 209 kts | 328° |
| 2026-04-25 13:19 | 37.13241 | -78.15640 | 6959 ft | 208 kts | 328° |
| 2026-04-25 13:19 | 37.14513 | -78.16514 | 6971 ft | 209 kts | 328° |
| 2026-04-25 13:19 | 37.14925 | -78.16797 | 6972 ft | 209 kts | 328° |
| 2026-04-25 13:20 | 37.17076 | -78.18275 | 6952 ft | 209 kts | 328° |
| 2026-04-25 13:20 | 37.18347 | -78.19153 | 6958 ft | 209 kts | 329° |
| 2026-04-25 13:20 | 37.19623 | -78.20029 | 6968 ft | 210 kts | 328° |
| 2026-04-25 13:20 | 37.20906 | -78.20913 | 6949 ft | 210 kts | 328° |
| 2026-04-25 13:21 | 37.22123 | -78.21876 | 6952 ft | 209 kts | 322° |
| 2026-04-25 13:21 | 37.23336 | -78.22924 | 6951 ft | 208 kts | 323° |
| 2026-04-25 13:21 | 37.24520 | -78.23925 | 6955 ft | 208 kts | 323° |
| 2026-04-25 13:21 | 37.25719 | -78.24939 | 6955 ft | 208 kts | 323° |
| 2026-04-25 13:22 | 37.26914 | -78.25952 | 6967 ft | 208 kts | 323° |
| 2026-04-25 13:22 | 37.28115 | -78.26972 | 6963 ft | 208 kts | 323° |
| 2026-04-25 13:22 | 37.29313 | -78.27993 | 6966 ft | 208 kts | 323° |
| 2026-04-25 13:23 | 37.31705 | -78.30037 | 6970 ft | 208 kts | 323° |
| 2026-04-25 13:23 | 37.32899 | -78.31059 | 6969 ft | 208 kts | 323° |
| 2026-04-25 13:23 | 37.34091 | -78.32079 | 6974 ft | 207 kts | 323° |
| 2026-04-25 13:23 | 37.35284 | -78.33099 | 6974 ft | 208 kts | 323° |
| 2026-04-25 13:24 | 37.36475 | -78.34123 | 6969 ft | 208 kts | 323° |
| 2026-04-25 13:24 | 37.37666 | -78.35147 | 6973 ft | 207 kts | 322° |
| 2026-04-25 13:24 | 37.38856 | -78.36175 | 6972 ft | 208 kts | 323° |
| 2026-04-25 13:24 | 37.40051 | -78.37211 | 6973 ft | 208 kts | 323° |
| 2026-04-25 13:25 | 37.41247 | -78.38249 | 6968 ft | 209 kts | 322° |
| 2026-04-25 13:25 | 37.42439 | -78.39282 | 6970 ft | 208 kts | 322° |
| 2026-04-25 13:25 | 37.43632 | -78.40319 | 6968 ft | 208 kts | 322° |
| 2026-04-25 13:25 | 37.44823 | -78.41356 | 6970 ft | 208 kts | 322° |
| 2026-04-25 13:26 | 37.46011 | -78.42389 | 6970 ft | 208 kts | 322° |
| 2026-04-25 13:26 | 37.47199 | -78.43427 | 6967 ft | 208 kts | 322° |
| 2026-04-25 13:26 | 37.48387 | -78.44466 | 6966 ft | 208 kts | 322° |
| 2026-04-25 13:26 | 37.49565 | -78.45486 | 6955 ft | 199 kts | 323° |
| 2026-04-25 13:27 | 37.50712 | -78.46399 | 6675 ft | 195 kts | 326° |
| 2026-04-25 13:27 | 37.51935 | -78.47246 | 6069 ft | 207 kts | 330° |
| 2026-04-25 13:27 | 37.53220 | -78.48099 | 5652 ft | 206 kts | 328° |
| 2026-04-25 13:27 | 37.54416 | -78.49003 | 5432 ft | 196 kts | 325° |
| 2026-04-25 13:28 | 37.55554 | -78.49940 | 5065 ft | 197 kts | 324° |
| 2026-04-25 13:28 | 37.55925 | -78.50253 | 4916 ft | 198 kts | 324° |
| 2026-04-25 13:28 | 37.57489 | -78.51519 | 4388 ft | 198 kts | 326° |
| 2026-04-25 13:28 | 37.58679 | -78.52437 | 4123 ft | 205 kts | 327° |
| 2026-04-25 13:29 | 37.59904 | -78.53384 | 4038 ft | 206 kts | 326° |
| 2026-04-25 13:29 | 37.61135 | -78.54308 | 4026 ft | 207 kts | 328° |
| 2026-04-25 13:29 | 37.62389 | -78.55218 | 3988 ft | 206 kts | 327° |
| 2026-04-25 13:30 | 37.64763 | -78.57102 | 4104 ft | 201 kts | 323° |
| 2026-04-25 13:30 | 37.65908 | -78.58160 | 4030 ft | 205 kts | 319° |
| 2026-04-25 13:30 | 37.66998 | -78.59310 | 4066 ft | 203 kts | 317° |
| 2026-04-25 13:31 | 37.69297 | -78.61529 | 3812 ft | 212 kts | 323° |
| 2026-04-25 13:31 | 37.70494 | -78.62573 | 3848 ft | 208 kts | 322° |
| 2026-04-25 13:31 | 37.71672 | -78.63639 | 3801 ft | 209 kts | 322° |
| 2026-04-25 13:31 | 37.72871 | -78.64709 | 3733 ft | 211 kts | 322° |
| 2026-04-25 13:32 | 37.74053 | -78.65815 | 3704 ft | 212 kts | 320° |
| 2026-04-25 13:32 | 37.75231 | -78.66906 | 3686 ft | 209 kts | 323° |
| 2026-04-25 13:32 | 37.76448 | -78.67916 | 3636 ft | 210 kts | 326° |
| 2026-04-25 13:32 | 37.77684 | -78.68910 | 3579 ft | 211 kts | 325° |
| 2026-04-25 13:33 | 37.78887 | -78.69955 | 3564 ft | 208 kts | 322° |
| 2026-04-25 13:33 | 37.80032 | -78.71080 | 3549 ft | 208 kts | 320° |
| 2026-04-25 13:33 | 37.81154 | -78.72202 | 3437 ft | 203 kts | 320° |
| 2026-04-25 13:33 | 37.81873 | -78.72952 | 3271 ft | 203 kts | 317° |
| 2026-04-25 13:34 | 37.83326 | -78.74503 | 2968 ft | 206 kts | 320° |
| 2026-04-25 13:34 | 37.84541 | -78.75489 | 2913 ft | 206 kts | 324° |
| 2026-04-25 13:34 | 37.85488 | -78.76802 | 2919 ft | 204 kts | 299° |
| 2026-04-25 13:34 | 37.86194 | -78.78274 | 3269 ft | 188 kts | 305° |
| 2026-04-25 13:35 | 37.87076 | -78.79399 | 3703 ft | 178 kts | 323° |
| 2026-04-25 13:35 | 37.88172 | -78.80160 | 3942 ft | 183 kts | 332° |
| 2026-04-25 13:35 | 37.89354 | -78.80845 | 4061 ft | 191 kts | 334° |
| 2026-04-25 13:35 | 37.90600 | -78.81522 | 4154 ft | 197 kts | 335° |
| 2026-04-25 13:36 | 37.91859 | -78.82177 | 4375 ft | 195 kts | 332° |
| 2026-04-25 13:36 | 37.93003 | -78.83064 | 4506 ft | 190 kts | 319° |
| 2026-04-25 13:36 | 37.93991 | -78.84175 | 4434 ft | 191 kts | 315° |
| 2026-04-25 13:36 | 37.94975 | -78.85302 | 4393 ft | 190 kts | 315° |
| 2026-04-25 13:37 | 37.95947 | -78.86442 | 4311 ft | 192 kts | 314° |
| 2026-04-25 13:37 | 37.96880 | -78.87651 | 4246 ft | 188 kts | 307° |
| 2026-04-25 13:37 | 37.97663 | -78.88976 | 3869 ft | 189 kts | 304° |
| 2026-04-25 13:37 | 37.98473 | -78.90280 | 3454 ft | 186 kts | 310° |
| 2026-04-25 13:38 | 37.99477 | -78.91322 | 3027 ft | 188 kts | 328° |
| 2026-04-25 13:38 | 38.00714 | -78.91874 | 2575 ft | 191 kts | 346° |
| 2026-04-25 13:38 | 38.01965 | -78.92293 | 2407 ft | 179 kts | 342° |
| 2026-04-25 13:38 | 38.03097 | -78.92752 | 2328 ft | 165 kts | 342° |
| 2026-04-25 13:39 | 38.04121 | -78.93315 | 2209 ft | 157 kts | 331° |
| 2026-04-25 13:39 | 38.05101 | -78.93893 | 2073 ft | 151 kts | 339° |
| 2026-04-25 13:39 | 38.06036 | -78.94367 | 2055 ft | 140 kts | 340° |
| 2026-04-25 13:39 | 38.06912 | -78.94790 | 2039 ft | 131 kts | 338° |
| 2026-04-25 13:40 | 38.07779 | -78.95252 | 2040 ft | 138 kts | 338° |
| 2026-04-25 13:40 | 38.08420 | -78.96049 | 2177 ft | 135 kts | 282° |
| 2026-04-25 13:40 | 38.08241 | -78.97173 | 2358 ft | 133 kts | 244° |
| 2026-04-25 13:40 | 38.07754 | -78.98190 | 2220 ft | 133 kts | 228° |
| 2026-04-25 13:41 | 38.06961 | -78.98409 | 2100 ft | 129 kts | 145° |
| 2026-04-25 13:41 | 38.06719 | -78.97423 | 1970 ft | 124 kts | 71° |
| 2026-04-25 13:41 | 38.06917 | -78.96393 | 1882 ft | 116 kts | 81° |
| 2026-04-25 13:41 | 38.07130 | -78.95458 | 1661 ft | 107 kts | 61° |
| 2026-04-25 13:42 | 38.07541 | -78.94700 | 1464 ft | 101 kts | 54° |
| 2026-04-25 13:42 | 38.07809 | -78.94259 | 1460 ft | 24 kts | 55° |
| 2026-04-25 13:42 | 38.07863 | -78.94182 | 1459 ft | 8 kts | 350° |
| 2026-04-25 13:42 | 38.07902 | -78.94233 | 1457 ft | 6 kts | 261° |
| 2026-04-25 13:43 | 38.07890 | -78.94236 | 1457 ft | 0 kts | 108° |